Keller, Washington
Current Conditions -  °F | °C
As of 4:53 PM on Friday 19 Dec 2014 (Local Time) from KOMK Reporting Station
Overcast Overcast  
Wind Chill: 33°   Ceiling: 1800
Heat Index: 37°   Visibility: 10mi
Dew Point: 34°   Wind: 5mph
Humidity: 89%   Direction: 120°ESE
Pressure: 29.97"   Gusts: NA
Location:  48.08°N, 118.69°W
Report Text: KOMK 200053Z AUTO 12004KT 10SM OVC018 03/01 A2997 RMK AO2 SLP162 T00280011
Loading
Personal Weather Stations






























Interactive Weather Map New forecast layout! Learn more

10-Day Weather Forecast

Advertisements
Track Severe Weather on mobile